Time;durP1;ratioP1;P1;durP2;ratioP2;P2;SDS_P1;SDS_P2;PMS_P1;PMS_P2;Temp;Humidity;BMP_temperature;BMP_pressure;BME280_temperature;BME280_humidity;BME280_pressure;Samples;Min_cycle;Max_cycle;Signal;HPM_P1;HPM_P2
2022/07/22 00:01:55;;;;;;;12.45;5.40;;;18.10;99.90;;;;;;5054916;28;20221;-51
2022/07/22 00:04:21;;;;;;;9.95;5.55;;;18.20;99.90;;;;;;5054946;28;20169;-53
2022/07/22 00:06:46;;;;;;;13.38;5.35;;;18.20;99.90;;;;;;5054973;28;20736;-47
2022/07/22 00:09:12;;;;;;;10.15;6.00;;;18.30;99.90;;;;;;5054299;28;20524;-56
2022/07/22 00:11:38;;;;;;;13.10;5.60;;;18.30;99.90;;;;;;5054568;28;20198;-56
2022/07/22 00:14:04;;;;;;;12.82;5.93;;;18.20;99.90;;;;;;5054557;28;20198;-55
2022/07/22 00:16:29;;;;;;;15.15;6.07;;;18.20;99.90;;;;;;5054460;28;20221;-56
2022/07/22 00:18:55;;;;;;;12.50;6.30;;;18.30;99.90;;;;;;5054408;28;20166;-57
2022/07/22 00:21:21;;;;;;;13.30;5.90;;;18.20;99.90;;;;;;5054710;28;20159;-55
2022/07/22 00:23:46;;;;;;;13.68;6.47;;;18.20;99.90;;;;;;5054648;28;20177;-55
2022/07/22 00:26:12;;;;;;;13.05;6.57;;;18.20;99.90;;;;;;5054112;28;20206;-53
2022/07/22 00:28:38;;;;;;;11.18;6.00;;;18.20;99.90;;;;;;5054163;28;20181;-54
2022/07/22 00:31:03;;;;;;;12.70;6.57;;;18.20;99.90;;;;;;5054448;28;20175;-56
2022/07/22 00:33:29;;;;;;;16.50;6.97;;;18.10;99.90;;;;;;5053680;28;20624;-57
2022/07/22 00:35:55;;;;;;;15.02;7.10;;;18.10;99.90;;;;;;5054261;28;20525;-52
2022/07/22 00:38:20;;;;;;;8.77;6.47;;;18.00;99.90;;;;;;5054164;28;20167;-54
2022/07/22 00:40:46;;;;;;;12.27;6.88;;;19.50;99.90;;;;;;5053762;28;20169;-53
2022/07/22 00:43:11;;;;;;;18.50;6.30;;;18.10;99.90;;;;;;5053596;28;20651;-49
2022/07/22 00:45:37;;;;;;;12.45;6.07;;;18.10;99.90;;;;;;5053867;28;20210;-51
2022/07/22 00:48:04;;;;;;;14.75;5.93;;;18.10;99.90;;;;;;5053870;28;20167;-51
2022/07/22 00:50:29;;;;;;;13.43;6.47;;;18.10;99.90;;;;;;5053769;28;20177;-52
2022/07/22 00:52:55;;;;;;;11.65;6.72;;;18.00;99.90;;;;;;5053737;28;20163;-56
2022/07/22 00:55:21;;;;;;;13.40;6.75;;;17.90;99.90;;;;;;5053715;28;20243;-47
2022/07/22 00:57:47;;;;;;;16.35;6.53;;;18.00;99.90;;;;;;5054079;28;20174;-54
2022/07/22 01:00:18;;;;;;;11.32;6.43;;;17.90;99.90;;;;;;5053693;28;20577;-50
2022/07/22 01:02:43;;;;;;;12.85;6.45;;;17.90;99.90;;;;;;5053723;28;20177;-48
2022/07/22 01:05:09;;;;;;;12.43;6.00;;;18.00;99.90;;;;;;5053387;28;20675;-52
2022/07/22 01:07:39;;;;;;;16.02;7.25;;;17.90;99.90;;;;;;5053392;28;20227;-56
2022/07/22 01:10:06;;;;;;;11.65;7.38;;;17.90;99.90;;;;;;5053448;28;20167;-54
2022/07/22 01:12:32;;;;;;;13.55;6.50;;;18.00;99.90;;;;;;5052096;28;20214;-54
2022/07/22 01:14:58;;;;;;;11.73;6.82;;;18.00;99.90;;;;;;5053399;28;20228;-57
2022/07/22 01:17:23;;;;;;;15.77;6.80;;;18.00;99.90;;;;;;5053310;28;20293;-45
2022/07/22 01:19:50;;;;;;;13.00;6.90;;;18.00;99.90;;;;;;5053937;28;20578;-45
2022/07/22 01:22:15;;;;;;;10.60;6.57;;;18.00;99.90;;;;;;5053329;28;20166;-45
2022/07/22 01:24:42;;;;;;;13.88;7.00;;;18.00;99.90;;;;;;5053063;28;20202;-45
2022/07/22 01:27:07;;;;;;;12.05;5.65;;;18.00;99.90;;;;;;5053392;28;20529;-45
2022/07/22 01:29:33;;;;;;;11.25;6.53;;;18.00;99.90;;;;;;5053100;28;20174;-44
2022/07/22 01:31:58;;;;;;;16.35;7.15;;;18.00;99.90;;;;;;5053022;28;20170;-44
2022/07/22 01:34:24;;;;;;;14.45;6.25;;;18.00;99.90;;;;;;5052996;28;20162;-45
2022/07/22 01:36:50;;;;;;;11.10;6.45;;;17.90;99.90;;;;;;5053518;28;20174;-45
2022/07/22 01:39:16;;;;;;;18.17;7.32;;;18.00;99.90;;;;;;5053023;28;20170;-44
2022/07/22 01:41:42;;;;;;;11.00;6.00;;;18.10;99.90;;;;;;5052810;28;20211;-44
2022/07/22 01:44:07;;;;;;;13.93;6.95;;;18.10;99.90;;;;;;5052448;28;20227;-45
2022/07/22 01:46:33;;;;;;;17.17;7.93;;;18.10;99.90;;;;;;5052468;28;20214;-44
2022/07/22 01:48:59;;;;;;;11.93;6.57;;;18.10;99.90;;;;;;5052728;28;20159;-44
2022/07/22 01:51:24;;;;;;;13.30;6.70;;;18.10;99.90;;;;;;5052686;28;20174;-46
2022/07/22 01:53:50;;;;;;;17.65;6.68;;;18.00;99.90;;;;;;5052898;28;20158;-44
2022/07/22 01:56:15;;;;;;;13.77;6.30;;;18.00;99.90;;;;;;5052626;28;20659;-44
2022/07/22 01:58:41;;;;;;;13.93;6.95;;;18.00;99.90;;;;;;5052551;28;20241;-45
2022/07/22 02:01:07;;;;;;;12.70;6.68;;;18.00;99.90;;;;;;5052519;28;20178;-44
2022/07/22 02:03:33;;;;;;;13.80;6.18;;;18.00;99.90;;;;;;5052448;28;20166;-45
2022/07/22 02:05:59;;;;;;;11.88;5.82;;;18.00;99.90;;;;;;5050852;28;20210;-44
2022/07/22 02:08:24;;;;;;;12.13;6.50;;;18.00;99.90;;;;;;5052335;28;20266;-44
2022/07/22 02:10:50;;;;;;;13.55;6.68;;;18.10;99.90;;;;;;5052578;28;20170;-44
2022/07/22 02:13:16;;;;;;;10.70;6.75;;;18.00;99.90;;;;;;5052704;28;20616;-44
2022/07/22 02:15:41;;;;;;;12.05;6.72;;;18.00;99.90;;;;;;5052210;28;20224;-45
2022/07/22 02:18:20;;;;;;;9.10;6.07;;;18.00;99.90;;;;;;5052459;28;20178;-45
2022/07/22 02:20:46;;;;;;;17.98;6.35;;;18.00;99.90;;;;;;5052736;28;20181;-47
2022/07/22 02:23:12;;;;;;;12.20;6.95;;;18.00;99.90;;;;;;5052112;28;20213;-50
2022/07/22 02:25:39;;;;;;;13.20;6.38;;;18.00;99.90;;;;;;5051967;28;20234;-47
2022/07/22 02:28:05;;;;;;;12.75;7.28;;;18.00;99.90;;;;;;5052135;28;20158;-46
2022/07/22 02:30:30;;;;;;;15.48;6.90;;;18.00;99.90;;;;;;5052050;28;20241;-46
2022/07/22 02:32:57;;;;;;;12.27;6.68;;;18.00;99.90;;;;;;5052008;28;20166;-49
2022/07/22 02:35:22;;;;;;;10.90;6.65;;;18.00;99.90;;;;;;5051915;28;20209;-47
2022/07/22 02:37:48;;;;;;;17.67;7.40;;;18.00;99.90;;;;;;5052294;28;20171;-53
2022/07/22 02:40:14;;;;;;;12.45;7.32;;;18.00;99.90;;;;;;5051868;28;20171;-51
2022/07/22 02:42:40;;;;;;;14.30;6.47;;;18.00;99.90;;;;;;5051921;28;20616;-46
2022/07/22 02:45:06;;;;;;;13.13;6.80;;;17.90;99.90;;;;;;5051779;28;20600;-51
2022/07/22 02:47:31;;;;;;;16.35;7.85;;;17.90;99.90;;;;;;5051849;28;20178;-54
2022/07/22 02:49:57;;;;;;;11.13;7.00;;;17.90;99.90;;;;;;5051752;28;20528;-45
2022/07/22 02:52:23;;;;;;;15.25;7.63;;;17.90;99.90;;;;;;5051716;28;20198;-51
2022/07/22 02:54:48;;;;;;;15.18;7.63;;;17.90;99.90;;;;;;5051938;28;20171;-52
2022/07/22 02:57:14;;;;;;;12.52;7.70;;;17.80;99.90;;;;;;5051821;28;20170;-54
2022/07/22 02:59:40;;;;;;;10.98;7.25;;;17.90;99.90;;;;;;5051691;28;20580;-54
2022/07/22 03:02:05;;;;;;;12.93;7.30;;;17.90;99.90;;;;;;5051646;28;20624;-44
2022/07/22 03:04:31;;;;;;;13.27;6.90;;;17.90;99.90;;;;;;5051484;28;20269;-44
2022/07/22 03:06:56;;;;;;;17.20;6.88;;;17.90;99.90;;;;;;5051408;28;20245;-44
2022/07/22 03:09:22;;;;;;;13.20;7.15;;;17.90;99.90;;;;;;5051582;28;20173;-44
2022/07/22 03:11:48;;;;;;;13.20;8.32;;;17.80;99.90;;;;;;5051860;28;20273;-44
2022/07/22 03:14:16;;;;;;;15.30;7.57;;;17.90;99.90;;;;;;5051793;28;20173;-44
2022/07/22 03:16:41;;;;;;;10.13;7.35;;;17.90;99.90;;;;;;5051737;28;20192;-44
2022/07/22 03:19:07;;;;;;;13.25;7.45;;;17.90;99.90;;;;;;5051615;28;20212;-45
2022/07/22 03:21:32;;;;;;;11.70;7.85;;;17.90;99.90;;;;;;5051481;28;20166;-52
2022/07/22 03:23:58;;;;;;;13.57;7.45;;;17.90;99.90;;;;;;5051451;28;20179;-52
2022/07/22 03:26:24;;;;;;;11.73;7.50;;;17.90;99.90;;;;;;5051614;28;20224;-49
2022/07/22 03:28:50;;;;;;;12.88;7.32;;;17.90;99.90;;;;;;5051911;28;20722;-55
2022/07/22 03:31:16;;;;;;;18.45;7.55;;;17.90;99.90;;;;;;5051878;28;20201;-50
2022/07/22 03:33:42;;;;;;;9.88;6.75;;;17.90;99.90;;;;;;5051406;28;20162;-49
2022/07/22 03:36:07;;;;;;;10.68;6.60;;;17.90;99.90;;;;;;5051584;28;20220;-44
2022/07/22 03:38:37;;;;;;;9.75;7.03;;;17.80;99.90;;;;;;5051325;28;20676;-47
2022/07/22 03:41:03;;;;;;;12.63;6.88;;;17.90;99.90;;;;;;5051265;28;20194;-46
2022/07/22 03:43:29;;;;;;;11.85;7.57;;;17.90;99.90;;;;;;5051243;28;20646;-44
2022/07/22 03:45:55;;;;;;;11.40;7.40;;;17.70;99.90;;;;;;5051119;28;20249;-44
2022/07/22 03:48:20;;;;;;;13.57;7.10;;;17.70;99.90;;;;;;5051234;28;20195;-46
2022/07/22 03:50:46;;;;;;;15.38;7.13;;;17.80;99.90;;;;;;5051495;28;20171;-45
2022/07/22 03:53:11;;;;;;;12.32;7.10;;;17.70;99.90;;;;;;5051131;28;20672;-48
2022/07/22 03:55:37;;;;;;;13.80;6.95;;;17.70;99.90;;;;;;5051168;28;20190;-49
2022/07/22 03:58:03;;;;;;;13.60;6.95;;;17.80;99.90;;;;;;5051082;28;20212;-44
2022/07/22 04:00:28;;;;;;;13.00;6.45;;;17.70;99.90;;;;;;5051105;28;20520;-44
2022/07/22 04:02:54;;;;;;;11.88;7.47;;;17.80;99.90;;;;;;5051139;28;20630;-44
2022/07/22 04:05:20;;;;;;;15.00;7.53;;;17.70;99.90;;;;;;5051245;28;20273;-44
2022/07/22 04:07:45;;;;;;;13.57;7.25;;;17.80;99.90;;;;;;5052068;28;20254;-51
2022/07/22 04:10:11;;;;;;;10.85;6.13;;;17.70;99.90;;;;;;5054604;28;20170;-47
2022/07/22 04:12:38;;;;;;;10.40;6.40;;;17.70;99.90;;;;;;5054591;28;20174;-56
2022/07/22 04:15:05;;;;;;;11.55;6.68;;;17.70;99.90;;;;;;5054545;28;20699;-49
2022/07/22 04:17:31;;;;;;;7.63;6.43;;;17.70;99.90;;;;;;5054391;28;20175;-49
2022/07/22 04:19:57;;;;;;;11.18;6.80;;;17.80;99.90;;;;;;5054418;28;20207;-55
2022/07/22 04:22:23;;;;;;;11.40;6.65;;;17.80;99.90;;;;;;5054646;28;20189;-54
2022/07/22 04:24:49;;;;;;;9.85;6.53;;;17.80;99.90;;;;;;5054530;28;20202;-54
2022/07/22 04:27:14;;;;;;;12.52;6.07;;;17.70;99.90;;;;;;5054244;28;20628;-56
2022/07/22 04:29:40;;;;;;;10.23;6.68;;;17.70;99.90;;;;;;5054306;28;20163;-54
2022/07/22 04:32:05;;;;;;;12.60;6.78;;;17.80;99.90;;;;;;5054221;28;20167;-55
2022/07/22 04:34:31;;;;;;;11.68;6.13;;;17.80;99.90;;;;;;5054225;28;20505;-53
2022/07/22 04:36:57;;;;;;;11.63;6.40;;;17.80;99.90;;;;;;5054159;28;20167;-57
2022/07/22 04:39:22;;;;;;;13.32;6.50;;;17.80;99.90;;;;;;5053876;28;20525;-57
2022/07/22 04:41:48;;;;;;;14.10;6.78;;;17.70;99.90;;;;;;5054126;28;20210;-50
2022/07/22 04:44:13;;;;;;;12.70;7.10;;;17.80;99.90;;;;;;5053957;28;20171;-44
2022/07/22 04:46:39;;;;;;;9.73;6.63;;;17.80;99.90;;;;;;5053923;28;20590;-44
2022/07/22 04:49:04;;;;;;;9.50;7.03;;;17.80;99.90;;;;;;5053923;28;20163;-45
2022/07/22 04:51:30;;;;;;;12.70;6.80;;;17.80;99.90;;;;;;5053866;28;20170;-44
2022/07/22 04:53:56;;;;;;;16.73;7.30;;;17.90;99.90;;;;;;5053846;28;20297;-44
2022/07/22 04:56:21;;;;;;;13.60;6.93;;;17.80;99.90;;;;;;5053719;28;20253;-44
2022/07/22 04:58:47;;;;;;;12.60;6.50;;;17.80;99.90;;;;;;5053973;28;20167;-44
2022/07/22 05:01:13;;;;;;;11.00;7.00;;;17.90;99.90;;;;;;5053847;28;20167;-45
2022/07/22 05:03:40;;;;;;;11.38;7.05;;;17.90;99.90;;;;;;5053825;28;20178;-43
2022/07/22 05:06:05;;;;;;;8.25;6.28;;;17.90;99.90;;;;;;5053356;28;20205;-45
2022/07/22 05:08:31;;;;;;;15.27;6.78;;;17.90;99.90;;;;;;5053659;28;20183;-45
2022/07/22 05:10:57;;;;;;;12.00;7.05;;;17.90;99.90;;;;;;5053468;28;20166;-44
2022/07/22 05:13:22;;;;;;;9.68;6.40;;;17.90;99.90;;;;;;5053407;28;20174;-44
2022/07/22 05:15:48;;;;;;;9.20;6.82;;;17.90;99.90;;;;;;5053615;28;20257;-44
2022/07/22 05:18:14;;;;;;;15.18;8.13;;;17.90;99.90;;;;;;5053247;28;20178;-44
2022/07/22 05:20:39;;;;;;;11.43;7.03;;;18.10;99.90;;;;;;5052274;28;20205;-44
2022/07/22 05:23:05;;;;;;;9.90;6.50;;;18.00;99.90;;;;;;5053177;28;20185;-44
2022/07/22 05:25:30;;;;;;;10.80;6.45;;;18.10;99.90;;;;;;5053139;28;20293;-44
2022/07/22 05:27:56;;;;;;;15.15;7.00;;;18.10;99.90;;;;;;5051862;28;20167;-44
2022/07/22 05:30:22;;;;;;;10.20;7.35;;;18.20;99.90;;;;;;5053039;28;20174;-43
2022/07/22 05:32:47;;;;;;;11.85;6.45;;;18.30;99.90;;;;;;5053376;28;20170;-44
2022/07/22 05:35:13;;;;;;;15.73;6.75;;;18.30;99.90;;;;;;5052961;28;20504;-47
2022/07/22 05:37:39;;;;;;;12.88;7.43;;;18.40;99.90;;;;;;5052823;28;20170;-49
2022/07/22 05:40:05;;;;;;;12.00;7.25;;;18.40;99.90;;;;;;5053040;28;20225;-44
2022/07/22 05:42:30;;;;;;;15.02;7.60;;;18.40;99.90;;;;;;5052743;28;20192;-44
2022/07/22 05:44:56;;;;;;;8.40;7.20;;;18.40;99.90;;;;;;5052745;28;20207;-44
2022/07/22 05:47:22;;;;;;;10.82;6.75;;;18.50;99.90;;;;;;5052767;28;20166;-47
2022/07/22 05:49:47;;;;;;;11.63;7.55;;;18.50;99.90;;;;;;5053024;28;20253;-46
2022/07/22 05:52:13;;;;;;;10.50;6.72;;;18.50;99.90;;;;;;5052661;28;20158;-45
2022/07/22 05:54:39;;;;;;;10.82;6.20;;;18.50;99.90;;;;;;5052357;28;20182;-43
2022/07/22 05:57:09;;;;;;;9.63;7.00;;;18.50;99.90;;;;;;5052774;28;20198;-46
2022/07/22 05:59:35;;;;;;;9.40;7.05;;;18.50;99.90;;;;;;5052772;28;20224;-46
2022/07/22 06:02:00;;;;;;;11.07;6.88;;;18.60;99.90;;;;;;5052374;28;20249;-57
2022/07/22 06:04:26;;;;;;;10.02;6.78;;;18.50;99.90;;;;;;5052630;28;20171;-53
2022/07/22 06:06:52;;;;;;;7.85;6.45;;;18.60;99.90;;;;;;5052349;28;20242;-57
2022/07/22 06:09:17;;;;;;;7.65;5.97;;;18.60;99.90;;;;;;5052700;28;20747;-52
2022/07/22 06:11:43;;;;;;;25.08;7.63;;;18.80;99.90;;;;;;5052566;28;20541;-55
2022/07/22 06:14:09;;;;;;;22.73;7.88;;;18.90;99.90;;;;;;5052308;28;20993;-55
2022/07/22 06:16:35;;;;;;;13.07;8.13;;;18.90;99.90;;;;;;5051813;28;20186;-54
2022/07/22 06:19:01;;;;;;;11.27;7.63;;;18.90;99.90;;;;;;5052468;28;20540;-56
2022/07/22 06:21:27;;;;;;;10.65;7.75;;;18.90;99.90;;;;;;5052097;28;20246;-55
2022/07/22 06:23:52;;;;;;;12.93;7.65;;;19.00;99.90;;;;;;5051775;28;20697;-50
2022/07/22 06:26:18;;;;;;;13.32;7.45;;;19.10;99.90;;;;;;5052357;28;20617;-48
2022/07/22 06:28:44;;;;;;;12.48;7.68;;;19.20;99.90;;;;;;5052237;28;20250;-48
2022/07/22 06:31:09;;;;;;;11.63;7.22;;;19.10;99.90;;;;;;5051591;28;20592;-52
2022/07/22 06:33:35;;;;;;;14.23;8.85;;;19.10;99.90;;;;;;5051875;28;20158;-49
2022/07/22 06:36:01;;;;;;;10.18;6.75;;;19.10;99.90;;;;;;5051636;28;20636;-48
2022/07/22 06:38:26;;;;;;;9.82;6.10;;;19.20;99.90;;;;;;5051542;28;20250;-45
2022/07/22 06:40:52;;;;;;;11.27;4.90;;;19.20;99.90;;;;;;5051572;28;20186;-49
2022/07/22 06:43:18;;;;;;;9.93;4.43;;;19.30;99.90;;;;;;5052433;28;20205;-50
2022/07/22 06:45:43;;;;;;;6.70;3.97;;;19.30;99.90;;;;;;5051501;28;20202;-47
2022/07/22 06:48:09;;;;;;;6.40;3.88;;;19.50;99.90;;;;;;5051571;28;20170;-50
2022/07/22 06:50:35;;;;;;;5.95;2.97;;;19.40;99.90;;;;;;5051773;28;20262;-52
2022/07/22 06:53:00;;;;;;;7.13;3.22;;;19.50;99.90;;;;;;5051715;28;20178;-53
2022/07/22 06:55:26;;;;;;;10.48;3.95;;;19.40;99.90;;;;;;5051741;28;20171;-50
2022/07/22 06:57:51;;;;;;;5.68;3.03;;;19.50;99.90;;;;;;5051763;28;20708;-57
2022/07/22 07:00:18;;;;;;;7.10;2.95;;;19.60;99.90;;;;;;5051994;28;20193;-51
2022/07/22 07:02:44;;;;;;;6.50;3.15;;;19.50;99.90;;;;;;5051877;28;20253;-55
2022/07/22 07:05:10;;;;;;;7.55;3.22;;;19.50;99.90;;;;;;5051775;28;20230;-54
2022/07/22 07:07:36;;;;;;;7.10;3.13;;;19.60;99.90;;;;;;5051267;28;20218;-57
2022/07/22 07:10:02;;;;;;;4.22;2.50;;;19.60;99.90;;;;;;5051221;28;20193;-50
2022/07/22 07:12:27;;;;;;;7.03;2.95;;;19.50;99.90;;;;;;5051157;28;20162;-54
2022/07/22 07:14:53;;;;;;;5.72;2.50;;;19.60;99.90;;;;;;5039783;28;20521;-50
2022/07/22 07:17:18;;;;;;;5.88;3.20;;;19.50;99.90;;;;;;5031427;28;20173;-53
2022/07/22 07:19:44;;;;;;;8.60;3.25;;;19.60;99.90;;;;;;5031333;28;20175;-51
2022/07/22 07:22:10;;;;;;;5.75;3.08;;;19.60;99.90;;;;;;5031089;28;20246;-45
2022/07/22 07:24:35;;;;;;;7.70;3.00;;;19.70;99.90;;;;;;5031043;28;20262;-50
2022/07/22 07:27:01;;;;;;;9.07;3.70;;;19.60;99.90;;;;;;5031142;28;20175;-51
2022/07/22 07:29:26;;;;;;;7.93;3.33;;;19.60;99.90;;;;;;5031206;28;20202;-51
2022/07/22 07:31:52;;;;;;;8.45;3.42;;;19.60;99.90;;;;;;5031568;28;20271;-55
2022/07/22 07:34:18;;;;;;;9.40;3.58;;;19.70;99.90;;;;;;5031783;28;20168;-50
2022/07/22 07:36:43;;;;;;;6.97;3.55;;;19.70;99.90;;;;;;5031160;28;20179;-56
2022/07/22 07:39:09;;;;;;;11.48;4.00;;;19.70;99.90;;;;;;5031156;28;20222;-47
2022/07/22 07:41:34;;;;;;;7.45;3.30;;;19.80;99.90;;;;;;5030824;28;20213;-49
2022/07/22 07:44:00;;;;;;;7.47;3.17;;;18.20;99.90;;;;;;5033831;28;20173;-52
2022/07/22 07:46:26;;;;;;;7.95;3.88;;;19.80;99.90;;;;;;5034775;28;20207;-51
2022/07/22 07:48:51;;;;;;;7.05;3.55;;;20.00;99.90;;;;;;5035340;28;20175;-45
2022/07/22 07:51:17;;;;;;;8.32;4.18;;;20.10;99.90;;;;;;5035175;28;20258;-52
2022/07/22 07:53:42;;;;;;;7.82;3.92;;;20.10;99.90;;;;;;5035008;28;20171;-53
2022/07/22 07:56:08;;;;;;;7.97;4.05;;;20.00;99.90;;;;;;5034819;28;20278;-51
2022/07/22 07:58:34;;;;;;;9.80;3.85;;;20.10;99.90;;;;;;5034826;28;20621;-52
2022/07/22 08:00:59;;;;;;;7.30;4.63;;;20.20;99.90;;;;;;5034498;28;20168;-51
2022/07/22 08:03:25;;;;;;;8.82;3.92;;;20.20;99.90;;;;;;5034550;28;20164;-51
2022/07/22 08:05:50;;;;;;;6.85;4.03;;;20.10;99.90;;;;;;5034435;28;20672;-46
2022/07/22 08:08:16;;;;;;;10.20;3.67;;;20.20;99.90;;;;;;5035032;28;20222;-52
2022/07/22 08:10:43;;;;;;;6.60;4.13;;;20.10;99.90;;;;;;5034312;28;20561;-50
2022/07/22 08:13:08;;;;;;;9.02;3.88;;;20.30;99.90;;;;;;5034609;28;20640;-45
2022/07/22 08:15:34;;;;;;;10.82;4.63;;;20.60;99.90;;;;;;5034407;28;20242;-45
2022/07/22 08:17:59;;;;;;;9.43;4.45;;;20.70;99.90;;;;;;5034664;28;20171;-45
2022/07/22 08:20:25;;;;;;;9.45;4.80;;;20.60;99.90;;;;;;5034591;28;20166;-43
2022/07/22 08:22:52;;;;;;;10.07;4.32;;;20.70;99.90;;;;;;5039883;28;20261;-44
2022/07/22 08:25:19;;;;;;;9.27;4.88;;;20.70;99.90;;;;;;5039661;28;20260;-45
2022/07/22 08:27:45;;;;;;;8.80;5.03;;;20.80;99.90;;;;;;5034700;28;20534;-45
2022/07/22 08:30:11;;;;;;;8.18;5.55;;;20.80;99.90;;;;;;5034652;28;20568;-46
2022/07/22 08:32:37;;;;;;;10.38;5.70;;;20.80;99.90;;;;;;5034168;28;20182;-45
2022/07/22 08:35:04;;;;;;;9.00;4.88;;;20.70;99.90;;;;;;5034045;28;20168;-46
2022/07/22 08:37:29;;;;;;;7.57;4.88;;;20.80;99.90;;;;;;5034302;28;20182;-51
2022/07/22 08:39:55;;;;;;;11.20;5.75;;;20.80;99.90;;;;;;5034197;28;20159;-44
2022/07/22 08:42:22;;;;;;;7.05;4.90;;;20.80;99.90;;;;;;5034355;28;20265;-45
2022/07/22 08:44:48;;;;;;;7.72;5.82;;;20.80;99.90;;;;;;5034230;28;20361;-49
2022/07/22 08:47:14;;;;;;;7.35;5.60;;;20.90;99.90;;;;;;5034308;28;20241;-46
2022/07/22 08:49:39;;;;;;;11.73;5.30;;;20.90;99.90;;;;;;5033837;28;20625;-44
2022/07/22 08:52:05;;;;;;;8.75;4.90;;;20.90;99.90;;;;;;5033644;28;20182;-48
2022/07/22 08:54:31;;;;;;;9.73;6.00;;;20.70;99.90;;;;;;5033385;28;20159;-45
2022/07/22 08:56:57;;;;;;;12.32;6.00;;;20.90;99.90;;;;;;5033561;28;20167;-45
2022/07/22 08:59:22;;;;;;;10.93;5.40;;;21.10;99.90;;;;;;5033663;28;20194;-46
2022/07/22 09:02:02;;;;;;;9.77;6.07;;;21.20;99.90;;;;;;5034037;28;20225;-45
2022/07/22 09:04:28;;;;;;;11.60;6.28;;;21.20;99.90;;;;;;5033739;28;20167;-45
2022/07/22 09:06:53;;;;;;;9.05;6.38;;;21.20;99.90;;;;;;5033383;28;20226;-45
2022/07/22 09:09:31;;;;;;;9.30;6.47;;;21.20;99.90;;;;;;5033584;28;20206;-44
2022/07/22 09:12:07;;;;;;;9.70;6.25;;;21.20;99.90;;;;;;5033519;28;20178;-45
2022/07/22 09:14:50;;;;;;;8.02;6.72;;;21.20;99.90;;;;;;5033784;28;20175;-45
2022/07/22 09:17:28;;;;;;;11.02;6.78;;;21.30;99.90;;;;;;5033804;28;20589;-45
2022/07/22 09:19:55;;;;;;;14.35;7.32;;;21.30;99.90;;;;;;5033623;28;20175;-47
2022/07/22 09:22:42;;;;;;;9.48;7.00;;;21.50;99.90;;;;;;5033656;28;20175;-45
2022/07/22 09:25:30;;;;;;;10.63;6.32;;;21.60;99.90;;;;;;5033151;28;20198;-46
2022/07/22 09:28:10;;;;;;;11.30;5.55;;;21.50;99.90;;;;;;5033534;28;20198;-46
2022/07/22 09:30:39;;;;;;;9.98;6.63;;;21.60;99.90;;;;;;5033203;28;20246;-45
2022/07/22 09:33:06;;;;;;;14.35;6.25;;;21.50;99.90;;;;;;5033102;28;20175;-46
2022/07/22 09:35:32;;;;;;;13.63;6.10;;;21.50;99.90;;;;;;5033063;28;20186;-50
2022/07/22 09:38:03;;;;;;;11.82;6.68;;;21.60;99.90;;;;;;5033080;28;20179;-46
2022/07/22 09:40:31;;;;;;;11.55;6.88;;;21.70;99.90;;;;;;5031742;28;20167;-48
2022/07/22 09:43:01;;;;;;;8.38;6.25;;;21.80;99.90;;;;;;5033127;28;20167;-50
2022/07/22 09:45:29;;;;;;;11.98;6.97;;;21.80;99.90;;;;;;5032860;28;20226;-47
2022/07/22 09:47:56;;;;;;;10.68;6.85;;;21.70;99.90;;;;;;5032938;28;20182;-47
2022/07/22 09:50:26;;;;;;;10.38;5.90;;;21.50;99.90;;;;;;5032854;28;20171;-44
2022/07/22 09:52:54;;;;;;;12.55;6.47;;;21.60;99.90;;;;;;5032735;28;20171;-50
2022/07/22 09:55:22;;;;;;;11.32;6.57;;;21.80;99.90;;;;;;5032753;28;20687;-50
2022/07/22 09:57:49;;;;;;;12.07;7.50;;;21.90;99.90;;;;;;5033029;28;20259;-53
2022/07/22 10:00:17;;;;;;;9.98;6.72;;;21.80;99.90;;;;;;5033243;28;20527;-49
2022/07/22 10:02:54;;;;;;;12.52;6.82;;;22.00;99.90;;;;;;5032868;28;20172;-54
2022/07/22 10:05:24;;;;;;;14.35;6.60;;;22.00;99.90;;;;;;5031925;28;20207;-50
2022/07/22 10:07:51;;;;;;;12.23;6.28;;;22.10;99.90;;;;;;5032351;28;20215;-50
2022/07/22 10:10:20;;;;;;;13.20;7.47;;;22.20;99.90;;;;;;5032787;28;20167;-47
2022/07/22 10:12:48;;;;;;;10.00;7.18;;;20.70;99.90;;;;;;5032824;28;20164;-47
2022/07/22 10:15:14;;;;;;;13.45;7.53;;;22.10;99.90;;;;;;5032958;28;20571;-48
2022/07/22 10:17:42;;;;;;;12.10;7.57;;;22.20;99.90;;;;;;5032427;28;20168;-52
2022/07/22 10:20:09;;;;;;;11.18;8.20;;;22.30;99.90;;;;;;5032730;28;20284;-57
2022/07/22 10:22:41;;;;;;;15.02;8.60;;;22.50;99.90;;;;;;5032385;28;20197;-58
2022/07/22 10:25:09;;;;;;;13.02;8.60;;;22.60;99.90;;;;;;5032472;28;20234;-58
2022/07/22 10:27:45;;;;;;;10.90;7.65;;;22.70;99.90;;;;;;5032438;28;20659;-58
2022/07/22 10:30:12;;;;;;;11.05;8.10;;;22.90;99.90;;;;;;5032558;28;20179;-55
2022/07/22 10:32:38;;;;;;;12.93;9.35;;;22.80;99.90;;;;;;5032290;28;20663;-57
2022/07/22 10:35:04;;;;;;;11.15;8.95;;;22.80;99.90;;;;;;5032141;28;20171;-56
2022/07/22 10:37:43;;;;;;;14.38;9.23;;;22.70;99.90;;;;;;5032555;28;20174;-58
2022/07/22 10:40:14;;;;;;;16.73;9.40;;;22.70;99.90;;;;;;5032386;28;20198;-52
2022/07/22 10:43:08;;;;;;;14.77;9.85;;;23.00;99.90;;;;;;5032867;28;20171;-54
2022/07/22 10:45:43;;;;;;;11.50;9.73;;;23.10;99.90;;;;;;5032195;28;20206;-51
2022/07/22 10:48:11;;;;;;;16.90;10.30;;;22.90;99.90;;;;;;5030890;28;20175;-52
2022/07/22 10:50:37;;;;;;;13.90;10.55;;;22.90;99.90;;;;;;5032517;28;20190;-55
2022/07/22 10:53:39;;;;;;;16.75;10.85;;;22.90;99.90;;;;;;5032519;28;20538;-51
2022/07/22 10:56:04;;;;;;;12.98;10.20;;;23.00;99.90;;;;;;5025399;28;20171;-53
2022/07/22 10:58:33;;;;;;;12.98;9.73;;;23.10;99.90;;;;;;5032453;28;20496;-54
2022/07/22 11:01:01;;;;;;;13.73;10.85;;;23.10;99.90;;;;;;5032380;28;20254;-54
2022/07/22 11:03:29;;;;;;;13.98;10.30;;;23.20;99.90;;;;;;5032203;28;20179;-57
2022/07/22 11:05:56;;;;;;;13.43;10.55;;;23.30;99.90;;;;;;5031930;28;20241;-55
2022/07/22 11:08:22;;;;;;;13.70;10.68;;;23.60;99.90;;;;;;5030807;28;20206;-55
2022/07/22 11:10:49;;;;;;;14.77;10.75;;;23.80;99.90;;;;;;5032286;28;20186;-54
2022/07/22 11:13:34;;;;;;;15.07;10.88;;;24.30;99.90;;;;;;5032357;28;20171;-53
2022/07/22 11:16:16;;;;;;;14.00;10.98;;;24.20;99.90;;;;;;5032245;28;20249;-56
2022/07/22 11:18:46;;;;;;;13.13;11.02;;;24.10;99.90;;;;;;5036069;28;20244;-54
2022/07/22 11:21:15;;;;;;;16.30;13.38;;;24.60;99.90;;;;;;5036018;28;20189;-57
2022/07/22 11:23:40;;;;;;;15.38;12.95;;;24.90;99.90;;;;;;5035914;28;20261;-56
2022/07/22 11:26:09;;;;;;;15.88;14.07;;;24.40;99.90;;;;;;5035849;28;20282;-58
2022/07/22 11:28:44;;;;;;;21.60;16.90;;;24.50;99.90;;;;;;5035951;28;20221;-55
2022/07/22 11:31:14;;;;;;;18.75;16.35;;;24.60;99.90;;;;;;5036087;28;20182;-55
2022/07/22 11:33:40;;;;;;;18.45;15.55;;;25.00;99.90;;;;;;5035556;28;20174;-58
2022/07/22 11:36:09;;;;;;;17.33;15.52;;;25.30;99.90;;;;;;5035571;28;20531;-54
2022/07/22 11:38:43;;;;;;;20.38;16.48;;;25.20;99.90;;;;;;5034909;28;20189;-57
2022/07/22 11:41:10;;;;;;;19.45;17.02;;;25.40;99.90;;;;;;5034894;28;20627;-54
2022/07/22 11:43:44;;;;;;;19.45;17.45;;;25.20;99.90;;;;;;5034847;28;20171;-56
2022/07/22 11:46:10;;;;;;;15.68;14.02;;;25.10;99.90;;;;;;5034826;28;20288;-46
2022/07/22 11:48:37;;;;;;;15.55;13.35;;;25.40;99.90;;;;;;5034469;28;20246;-51
2022/07/22 11:51:04;;;;;;;19.33;14.20;;;25.70;99.90;;;;;;5035325;28;20197;-45
2022/07/22 11:53:30;;;;;;;17.10;14.68;;;25.60;99.90;;;;;;5035215;28;20189;-52
2022/07/22 11:56:03;;;;;;;17.20;14.15;;;25.50;99.90;;;;;;5034805;28;20242;-52
2022/07/22 11:58:38;;;;;;;16.23;14.18;;;25.80;99.90;;;;;;5035067;28;20216;-54
2022/07/22 12:01:06;;;;;;;14.55;12.88;;;26.30;99.90;;;;;;5034936;28;20177;-55
2022/07/22 12:03:33;;;;;;;17.42;14.15;;;26.00;99.90;;;;;;5034864;28;20167;-51
2022/07/22 12:05:59;;;;;;;16.92;14.32;;;25.70;99.90;;;;;;5033940;28;20242;-53
2022/07/22 12:08:25;;;;;;;19.00;14.35;;;25.10;99.90;;;;;;5033920;28;20266;-56
2022/07/22 12:10:51;;;;;;;17.10;13.68;;;24.90;99.90;;;;;;5034435;28;20249;-50
2022/07/22 12:13:16;;;;;;;17.63;13.70;;;25.40;99.90;;;;;;5034882;28;20174;-55
2022/07/22 12:15:42;;;;;;;15.57;13.48;;;25.90;99.90;;;;;;5034311;28;20270;-49
2022/07/22 12:18:19;;;;;;;15.85;13.77;;;26.10;99.90;;;;;;5034322;28;20167;-52
2022/07/22 12:20:47;;;;;;;16.42;14.60;;;25.80;99.90;;;;;;5034385;28;20174;-53
2022/07/22 12:23:13;;;;;;;14.75;13.18;;;25.70;99.90;;;;;;5033964;28;20220;-51
2022/07/22 12:25:51;;;;;;;16.40;14.48;;;26.00;99.90;;;;;;5034182;28;20242;-47
2022/07/22 12:28:17;;;;;;;15.85;13.75;;;25.70;99.90;;;;;;5033566;28;20258;-53
2022/07/22 12:30:43;;;;;;;16.63;13.43;;;25.60;99.90;;;;;;5034066;28;20250;-48
2022/07/22 12:33:16;;;;;;;16.33;14.15;;;25.60;99.90;;;;;;5034306;28;20179;-55
2022/07/22 12:35:42;;;;;;;19.08;14.18;;;25.60;99.90;;;;;;5033742;28;20512;-51
2022/07/22 12:38:09;;;;;;;17.42;14.55;;;25.60;99.90;;;;;;5034055;28;20182;-45